createdAt,value
2022-08-30T00:00:30.902Z,56.43
2022-08-30T00:01:30.536Z,56.95
2022-08-30T00:02:30.672Z,56.63
2022-08-30T00:03:30.745Z,56.15
2022-08-30T00:04:30.505Z,56.20
2022-08-30T00:05:30.520Z,56.25
2022-08-30T00:06:30.482Z,56.41
2022-08-30T00:07:30.475Z,56.14
2022-08-30T00:08:30.472Z,61.54
2022-08-30T00:09:30.469Z,59.55
2022-08-30T00:10:30.461Z,64.39
2022-08-30T00:11:30.453Z,59.23
2022-08-30T00:12:30.440Z,56.06
2022-08-30T00:13:30.452Z,61.99
2022-08-30T00:14:30.450Z,57.62
2022-08-30T00:15:30.519Z,63.51
2022-08-30T00:16:30.417Z,55.91
2022-08-30T00:17:30.421Z,55.62
2022-08-30T00:18:30.402Z,55.58
2022-08-30T00:19:30.391Z,59.55
2022-08-30T00:20:31.389Z,56.10
2022-08-30T00:21:30.389Z,65.12
2022-08-30T00:22:30.365Z,59.90
2022-08-30T00:23:30.378Z,56.05
2022-08-30T00:24:30.398Z,55.96
2022-08-30T00:25:30.377Z,55.76
2022-08-30T00:26:30.357Z,59.91
2022-08-30T00:27:30.349Z,60.39
2022-08-30T00:28:30.350Z,56.06
2022-08-30T00:29:30.374Z,58.43
2022-08-30T00:30:30.339Z,55.81
2022-08-30T00:31:30.389Z,55.68
2022-08-30T00:32:30.394Z,58.69
2022-08-30T00:33:30.322Z,59.41
2022-08-30T00:34:30.318Z,59.39
2022-08-30T00:35:30.317Z,55.82
2022-08-30T00:36:30.289Z,55.61
2022-08-30T00:37:30.294Z,55.64
2022-08-30T00:38:30.278Z,55.85
2022-08-30T00:39:30.305Z,55.86
2022-08-30T00:40:30.309Z,55.46
2022-08-30T00:41:30.268Z,55.48
2022-08-30T00:42:30.247Z,55.76
2022-08-30T00:43:30.247Z,58.23
2022-08-30T00:44:31.237Z,60.50
2022-08-30T00:45:30.263Z,55.72
2022-08-30T00:46:30.331Z,60.25
2022-08-30T00:47:30.217Z,59.65
2022-08-30T00:48:30.233Z,55.47
2022-08-30T00:49:30.207Z,57.97
2022-08-30T00:50:30.219Z,60.30
2022-08-30T00:51:30.205Z,61.86
2022-08-30T00:52:30.191Z,55.70
2022-08-30T00:53:30.183Z,60.20
2022-08-30T00:54:30.201Z,59.76
2022-08-30T00:55:30.181Z,57.49
2022-08-30T00:56:30.179Z,57.94
2022-08-30T00:57:30.159Z,56.00
2022-08-30T00:58:30.152Z,58.55
2022-08-30T00:59:30.144Z,56.40
2022-08-30T01:00:30.141Z,56.13
2022-08-30T01:02:02.163Z,55.64
2022-08-30T01:02:30.201Z,55.67
2022-08-30T01:03:30.140Z,54.97
2022-08-30T01:04:30.099Z,55.04
2022-08-30T01:05:31.104Z,55.63
2022-08-30T01:06:32.383Z,55.64
2022-08-30T01:07:30.096Z,55.71
2022-08-30T01:08:30.094Z,56.55
2022-08-30T01:09:30.080Z,62.52
2022-08-30T01:10:30.059Z,56.47
2022-08-30T01:11:30.068Z,57.68
2022-08-30T01:12:30.080Z,55.36
2022-08-30T01:13:30.040Z,55.89
2022-08-30T01:14:30.055Z,55.61
2022-08-30T01:15:30.058Z,55.99
2022-08-30T01:16:30.038Z,59.73
2022-08-30T01:17:30.027Z,55.54
2022-08-30T01:18:30.012Z,56.68
2022-08-30T01:19:30.003Z,55.83
2022-08-30T01:20:30.019Z,56.12
2022-08-30T01:21:29.995Z,56.73
2022-08-30T01:22:29.998Z,56.80
2022-08-30T01:23:30.015Z,62.17
2022-08-30T01:24:30.005Z,56.56
2022-08-30T01:25:29.975Z,56.54
2022-08-30T01:26:29.961Z,56.04
2022-08-30T01:27:29.980Z,57.48
2022-08-30T01:28:29.940Z,60.82
2022-08-30T01:29:29.942Z,56.20
2022-08-30T01:30:30.027Z,56.09
2022-08-30T01:31:29.938Z,57.46
2022-08-30T01:32:29.940Z,57.39
2022-08-30T01:33:29.931Z,59.86
2022-08-30T01:34:29.907Z,62.26
2022-08-30T01:35:29.915Z,57.34
2022-08-30T01:36:29.915Z,56.40
2022-08-30T01:37:29.900Z,56.29
2022-08-30T01:38:29.879Z,60.65
2022-08-30T01:39:29.883Z,59.36
2022-08-30T01:40:30.099Z,58.56
2022-08-30T01:41:29.873Z,61.21
2022-08-30T01:42:29.924Z,55.88
2022-08-30T01:43:29.844Z,55.91
2022-08-30T01:44:29.847Z,55.85
2022-08-30T01:45:29.847Z,55.57
2022-08-30T01:46:29.883Z,55.71
2022-08-30T01:47:29.851Z,56.15
2022-08-30T01:48:31.047Z,60.28
2022-08-30T01:49:29.808Z,55.75
2022-08-30T01:50:29.821Z,56.13
2022-08-30T01:51:29.835Z,55.52
2022-08-30T01:52:29.840Z,57.48
2022-08-30T01:53:29.803Z,60.03
2022-08-30T01:54:36.564Z,64.65
2022-08-30T01:55:30.811Z,62.05
2022-08-30T01:56:29.762Z,56.21
2022-08-30T01:57:29.775Z,55.77
2022-08-30T01:58:29.784Z,59.02
2022-08-30T01:59:29.739Z,57.92
2022-08-30T02:00:29.747Z,56.79
2022-08-30T02:01:29.831Z,62.85
2022-08-30T02:02:29.711Z,55.75
2022-08-30T02:03:29.759Z,55.11
2022-08-30T02:04:29.709Z,54.49
2022-08-30T02:05:29.699Z,55.21
2022-08-30T02:06:29.695Z,59.16
2022-08-30T02:07:29.676Z,53.52
2022-08-30T02:08:29.671Z,52.70
2022-08-30T02:09:29.687Z,52.28
2022-08-30T02:10:29.668Z,52.17
2022-08-30T02:11:29.670Z,52.58
2022-08-30T02:12:29.647Z,55.83
2022-08-30T02:13:29.644Z,57.83
2022-08-30T02:14:29.662Z,58.05
2022-08-30T02:15:29.727Z,56.23
2022-08-30T02:16:29.723Z,55.66
2022-08-30T02:17:29.646Z,55.09
2022-08-30T02:18:29.612Z,53.74
2022-08-30T02:19:29.614Z,57.60
2022-08-30T02:20:29.603Z,57.51
2022-08-30T02:21:29.588Z,57.04
2022-08-30T02:22:29.591Z,52.80
2022-08-30T02:23:29.579Z,52.93
2022-08-30T02:24:29.571Z,59.01
2022-08-30T02:25:29.576Z,59.06
2022-08-30T02:26:29.558Z,61.49
2022-08-30T02:27:29.548Z,54.08
2022-08-30T02:28:29.556Z,54.23
2022-08-30T02:29:29.542Z,59.69
2022-08-30T02:30:29.621Z,56.74
2022-08-30T02:31:29.527Z,62.10
2022-08-30T02:32:29.515Z,60.62
2022-08-30T02:33:29.502Z,55.36
2022-08-30T02:34:29.522Z,57.50
2022-08-30T02:35:29.483Z,57.71
2022-08-30T02:36:29.578Z,54.65
2022-08-30T02:37:29.487Z,53.92
2022-08-30T02:38:29.475Z,57.62
2022-08-30T02:39:29.496Z,63.60
2022-08-30T02:40:29.534Z,54.61
2022-08-30T02:41:29.438Z,58.65
2022-08-30T02:42:29.442Z,54.17
2022-08-30T02:43:29.439Z,62.94
2022-08-30T02:44:29.427Z,53.71
2022-08-30T02:45:29.459Z,58.13
2022-08-30T02:46:34.571Z,64.77
2022-08-30T02:47:30.414Z,60.61
2022-08-30T02:48:29.407Z,58.43
2022-08-30T02:49:33.538Z,53.74
2022-08-30T02:50:30.406Z,60.00
2022-08-30T02:51:29.419Z,62.42
2022-08-30T02:52:29.382Z,59.33
2022-08-30T02:53:29.366Z,59.71
2022-08-30T02:54:29.366Z,65.29
2022-08-30T02:55:29.378Z,58.91
2022-08-30T02:56:29.347Z,53.67
2022-08-30T02:57:29.338Z,60.96
2022-08-30T02:58:29.375Z,62.92
2022-08-30T02:59:29.330Z,62.43
2022-08-30T03:00:29.323Z,63.77
2022-08-30T03:01:29.572Z,69.43
2022-08-30T03:02:30.310Z,58.45
2022-08-30T03:03:29.357Z,67.12
2022-08-30T03:04:29.330Z,64.53
2022-08-30T03:05:29.298Z,58.58
2022-08-30T03:06:29.291Z,58.68
2022-08-30T03:07:29.270Z,61.25
2022-08-30T03:08:29.270Z,56.93
2022-08-30T03:09:29.251Z,57.19
2022-08-30T03:10:29.245Z,59.13
2022-08-30T03:11:29.262Z,56.42
2022-08-30T03:12:29.238Z,63.22
2022-08-30T03:13:29.854Z,68.49
2022-08-30T03:14:29.223Z,68.01
2022-08-30T03:15:29.254Z,60.61
2022-08-30T03:16:29.308Z,68.30
2022-08-30T03:17:29.198Z,60.60
2022-08-30T03:18:29.838Z,65.17
2022-08-30T03:19:29.215Z,69.15
2022-08-30T03:20:29.190Z,67.86
2022-08-30T03:21:29.177Z,69.16
2022-08-30T03:22:29.161Z,66.32
2022-08-30T03:23:29.442Z,68.83
2022-08-30T03:24:29.145Z,66.82
2022-08-30T03:25:29.144Z,58.93
2022-08-30T03:26:29.140Z,60.35
2022-08-30T03:27:29.147Z,63.67
2022-08-30T03:28:29.124Z,62.95
2022-08-30T03:29:29.175Z,65.28
2022-08-30T03:30:29.113Z,67.93
2022-08-30T03:31:29.144Z,68.63
2022-08-30T03:32:29.165Z,69.82
2022-08-30T03:33:29.104Z,66.23
2022-08-30T03:34:29.075Z,69.77
2022-08-30T03:35:29.096Z,66.33
2022-08-30T03:36:29.077Z,67.01
2022-08-30T03:37:29.064Z,66.05
2022-08-30T03:38:29.094Z,68.71
2022-08-30T03:39:29.065Z,66.13
2022-08-30T03:40:29.116Z,66.79
2022-08-30T03:41:29.808Z,73.19
2022-08-30T03:42:29.044Z,65.11
2022-08-30T03:43:29.029Z,67.46
2022-08-30T03:44:29.017Z,65.37
2022-08-30T03:45:29.060Z,71.10
2022-08-30T03:46:29.008Z,68.56
2022-08-30T03:47:29.066Z,71.97
2022-08-30T03:48:29.008Z,67.84
2022-08-30T03:49:29.008Z,73.02
2022-08-30T03:50:28.972Z,69.20
2022-08-30T03:51:28.977Z,69.11
2022-08-30T03:52:28.992Z,72.95
2022-08-30T03:53:28.969Z,68.23
2022-08-30T03:54:28.965Z,70.59
2022-08-30T03:55:28.941Z,67.22
2022-08-30T03:56:28.944Z,70.85
2022-08-30T03:57:28.944Z,69.95
2022-08-30T03:58:28.929Z,66.11
2022-08-30T03:59:28.920Z,70.57
2022-08-30T04:00:28.922Z,62.36
2022-08-30T04:01:28.934Z,65.03
2022-08-30T04:02:28.939Z,65.91
2022-08-30T04:03:28.924Z,68.69
2022-08-30T04:04:28.888Z,70.26
2022-08-30T04:05:28.872Z,65.03
2022-08-30T04:06:28.883Z,67.05
2022-08-30T04:07:28.865Z,68.76
2022-08-30T04:08:28.864Z,69.94
2022-08-30T04:09:28.851Z,64.15
2022-08-30T04:10:28.831Z,71.47
2022-08-30T04:11:28.835Z,67.01
2022-08-30T04:12:28.822Z,70.26
2022-08-30T04:13:28.852Z,70.99
2022-08-30T04:14:28.820Z,66.67
2022-08-30T04:15:28.799Z,68.96
2022-08-30T04:16:28.858Z,67.30
2022-08-30T04:17:28.796Z,69.13
2022-08-30T04:18:28.797Z,64.95
2022-08-30T04:19:28.769Z,69.96
2022-08-30T04:20:28.775Z,68.99
2022-08-30T04:21:28.779Z,70.64
2022-08-30T04:22:28.767Z,70.19
2022-08-30T04:23:28.767Z,65.26
2022-08-30T04:24:28.751Z,61.15
2022-08-30T04:25:28.735Z,68.91
2022-08-30T04:26:29.520Z,69.06
2022-08-30T04:27:28.736Z,71.25
2022-08-30T04:28:28.728Z,71.49
2022-08-30T04:29:28.721Z,69.12
2022-08-30T04:30:28.692Z,65.31
2022-08-30T04:31:28.796Z,73.54
2022-08-30T04:32:28.715Z,72.14
2022-08-30T04:33:28.711Z,68.06
2022-08-30T04:34:28.672Z,67.79
2022-08-30T04:35:28.647Z,66.72
2022-08-30T04:36:28.667Z,70.27
2022-08-30T04:37:28.640Z,70.75
2022-08-30T04:38:30.451Z,72.27
2022-08-30T04:39:29.659Z,73.05
2022-08-30T04:40:28.703Z,71.66
2022-08-30T04:41:28.627Z,73.20
2022-08-30T04:42:28.643Z,71.81
2022-08-30T04:43:28.615Z,73.10
2022-08-30T04:44:28.615Z,72.85
2022-08-30T04:45:28.642Z,73.05
2022-08-30T04:46:29.590Z,69.91
2022-08-30T04:47:28.571Z,72.45
2022-08-30T04:48:28.566Z,72.13
2022-08-30T04:49:28.628Z,70.31
2022-08-30T04:50:28.555Z,70.68
2022-08-30T04:51:28.551Z,71.29
2022-08-30T04:52:28.537Z,71.43
2022-08-30T04:53:28.574Z,71.41
2022-08-30T04:54:28.546Z,72.63
2022-08-30T04:55:28.527Z,71.14
2022-08-30T04:56:28.579Z,69.83
2022-08-30T04:57:28.506Z,70.02
2022-08-30T04:58:28.511Z,72.46
2022-08-30T04:59:28.527Z,66.91
2022-08-30T05:00:28.503Z,72.09
2022-08-30T05:01:28.767Z,72.31
2022-08-30T05:02:28.546Z,69.78
2022-08-30T05:03:28.487Z,68.09
2022-08-30T05:04:28.470Z,67.02
2022-08-30T05:05:28.493Z,73.09
2022-08-30T05:06:28.451Z,66.22
2022-08-30T05:07:28.459Z,71.39
2022-08-30T05:08:28.436Z,69.24
2022-08-30T05:09:28.430Z,71.62
2022-08-30T05:10:28.443Z,63.09
2022-08-30T05:11:28.435Z,59.79
2022-08-30T05:12:28.419Z,69.74
2022-08-30T05:13:35.574Z,71.53
2022-08-30T05:14:29.398Z,73.28
2022-08-30T05:15:28.394Z,72.73
2022-08-30T05:16:28.439Z,66.80
2022-08-30T05:17:28.455Z,70.54
2022-08-30T05:18:28.379Z,68.53
2022-08-30T05:19:28.377Z,71.06
2022-08-30T05:20:28.375Z,72.52
2022-08-30T05:21:28.375Z,74.11
2022-08-30T05:22:28.346Z,74.32
2022-08-30T05:23:28.343Z,70.88
2022-08-30T05:24:28.382Z,68.22
2022-08-30T05:25:28.318Z,68.85
2022-08-30T05:26:28.343Z,66.30
2022-08-30T05:27:28.384Z,72.65
2022-08-30T05:28:28.299Z,70.63
2022-08-30T05:29:28.315Z,72.57
2022-08-30T05:30:28.318Z,66.56
2022-08-30T05:31:28.345Z,73.12
2022-08-30T05:32:28.280Z,72.45
2022-08-30T05:33:28.274Z,69.91
2022-08-30T05:34:28.276Z,66.58
2022-08-30T05:35:28.250Z,70.39
2022-08-30T05:36:28.259Z,71.29
2022-08-30T05:37:28.250Z,68.79
2022-08-30T05:38:28.234Z,70.98
2022-08-30T05:39:28.231Z,70.80
2022-08-30T05:40:29.402Z,71.01
2022-08-30T05:41:29.226Z,68.41
2022-08-30T05:42:28.199Z,71.16
2022-08-30T05:43:30.012Z,70.75
2022-08-30T05:44:28.198Z,67.16
2022-08-30T05:45:28.187Z,72.10
2022-08-30T05:46:28.267Z,69.24
2022-08-30T05:47:28.185Z,71.58
2022-08-30T05:48:29.174Z,71.85
2022-08-30T05:49:28.163Z,68.76
2022-08-30T05:50:28.214Z,72.22
2022-08-30T05:51:28.151Z,71.26
2022-08-30T05:52:28.149Z,67.67
2022-08-30T05:53:28.818Z,70.46
2022-08-30T05:54:28.145Z,71.39
2022-08-30T05:55:28.134Z,68.79
2022-08-30T05:56:28.122Z,73.65
2022-08-30T05:57:28.124Z,69.85
2022-08-30T05:58:28.088Z,70.46
2022-08-30T05:59:28.125Z,69.24
2022-08-30T06:00:28.108Z,69.75
2022-08-30T06:01:28.137Z,70.49
2022-08-30T06:02:28.068Z,70.33
2022-08-30T06:03:28.114Z,68.08
2022-08-30T06:04:28.067Z,71.89
2022-08-30T06:05:28.067Z,70.10
2022-08-30T06:06:28.072Z,70.23
2022-08-30T06:07:28.038Z,71.40
2022-08-30T06:08:28.103Z,71.84
2022-08-30T06:09:28.032Z,68.28
2022-08-30T06:10:28.109Z,68.21
2022-08-30T06:11:28.025Z,72.04
2022-08-30T06:12:28.003Z,71.83
2022-08-30T06:13:27.999Z,61.48
2022-08-30T06:14:27.998Z,70.41
2022-08-30T06:15:27.976Z,73.27
2022-08-30T06:16:28.057Z,70.22
2022-08-30T06:17:27.980Z,70.70
2022-08-30T06:18:28.358Z,73.80
2022-08-30T06:19:27.973Z,73.85
2022-08-30T06:20:27.951Z,69.27
2022-08-30T06:21:27.955Z,68.31
2022-08-30T06:22:27.939Z,73.03
2022-08-30T06:23:27.947Z,69.87
2022-08-30T06:24:53.594Z,73.39
2022-08-30T06:25:41.327Z,67.10
2022-08-30T06:26:28.948Z,69.63
2022-08-30T06:27:27.956Z,71.98
2022-08-30T06:28:27.886Z,73.20
2022-08-30T06:29:27.890Z,71.54
2022-08-30T06:30:27.930Z,68.49
2022-08-30T06:31:27.950Z,79.08
2022-08-30T06:32:27.881Z,70.29
2022-08-30T06:33:27.892Z,71.89
2022-08-30T06:34:27.874Z,72.47
2022-08-30T06:35:27.859Z,69.01
2022-08-30T06:36:27.875Z,65.48
2022-08-30T06:37:30.048Z,72.87
2022-08-30T06:38:27.838Z,70.72
2022-08-30T06:39:27.852Z,69.42
2022-08-30T06:40:27.946Z,68.50
2022-08-30T06:41:27.818Z,66.26
2022-08-30T06:42:27.838Z,71.92
2022-08-30T06:43:28.703Z,69.80
2022-08-30T06:44:27.819Z,70.87
2022-08-30T06:45:27.815Z,71.92
2022-08-30T06:46:27.917Z,70.56
2022-08-30T06:47:27.816Z,66.52
2022-08-30T06:48:27.804Z,69.29
2022-08-30T06:49:27.787Z,67.78
2022-08-30T06:50:27.778Z,72.71
2022-08-30T06:51:27.762Z,74.21
2022-08-30T06:52:27.786Z,72.33
2022-08-30T06:53:27.766Z,67.59
2022-08-30T06:54:27.803Z,68.32
2022-08-30T06:55:27.738Z,64.45
2022-08-30T06:56:27.816Z,74.83
2022-08-30T06:57:27.743Z,65.43
2022-08-30T06:58:27.719Z,73.62
2022-08-30T06:59:27.770Z,67.78
2022-08-30T07:00:27.705Z,73.52
2022-08-30T07:01:27.807Z,69.45
2022-08-30T07:02:27.765Z,69.77
2022-08-30T07:03:27.709Z,72.84
2022-08-30T07:04:27.718Z,70.86
2022-08-30T07:05:27.714Z,70.34
2022-08-30T07:06:27.690Z,67.40
2022-08-30T07:07:27.709Z,69.21
2022-08-30T07:08:27.684Z,70.98
2022-08-30T07:09:27.805Z,72.28
2022-08-30T07:10:27.667Z,70.82
2022-08-30T07:11:28.480Z,70.39
2022-08-30T07:12:28.653Z,68.43
2022-08-30T07:13:27.648Z,71.10
2022-08-30T07:14:27.614Z,71.97
2022-08-30T07:15:27.611Z,70.90
2022-08-30T07:16:28.360Z,71.89
2022-08-30T07:17:31.309Z,72.31
2022-08-30T07:18:29.657Z,70.20
2022-08-30T07:19:27.615Z,72.83
2022-08-30T07:20:27.574Z,73.80
2022-08-30T07:21:28.572Z,66.80
2022-08-30T07:22:27.576Z,73.96
2022-08-30T07:23:27.623Z,76.44
2022-08-30T07:24:27.563Z,71.33
2022-08-30T07:25:27.569Z,68.82
2022-08-30T07:26:27.532Z,67.03
2022-08-30T07:27:27.537Z,68.65
2022-08-30T07:28:27.571Z,70.11
2022-08-30T07:29:27.537Z,67.61
2022-08-30T07:30:27.508Z,72.93
2022-08-30T07:31:27.488Z,75.82
2022-08-30T07:32:27.529Z,72.08
2022-08-30T07:33:27.491Z,71.34
2022-08-30T07:34:27.620Z,72.66
2022-08-30T07:35:28.510Z,70.58
2022-08-30T07:36:27.458Z,67.83
2022-08-30T07:37:28.370Z,67.54
2022-08-30T07:38:27.455Z,67.09
2022-08-30T07:39:27.449Z,67.57
2022-08-30T07:40:27.511Z,69.09
2022-08-30T07:41:27.438Z,66.64
2022-08-30T07:42:28.077Z,72.87
2022-08-30T07:43:27.410Z,69.15
2022-08-30T07:44:27.441Z,70.31
2022-08-30T07:45:27.419Z,65.51
2022-08-30T07:46:27.576Z,70.44
2022-08-30T07:47:27.404Z,63.85
2022-08-30T07:48:27.397Z,73.67
2022-08-30T07:49:27.388Z,68.44
2022-08-30T07:50:27.379Z,69.00
2022-08-30T07:51:27.393Z,74.49
2022-08-30T07:52:27.448Z,70.75
2022-08-30T07:53:27.360Z,68.37
2022-08-30T07:54:27.425Z,68.26
2022-08-30T07:55:27.348Z,71.99
2022-08-30T07:56:27.352Z,71.96
2022-08-30T07:57:27.479Z,69.55
2022-08-30T07:58:27.352Z,68.47
2022-08-30T07:59:31.862Z,69.33
2022-08-30T08:00:27.343Z,73.68
2022-08-30T08:01:27.396Z,72.31
2022-08-30T08:02:27.370Z,72.34
2022-08-30T08:03:27.315Z,74.39
2022-08-30T08:04:27.291Z,69.44
2022-08-30T08:05:27.278Z,70.18
2022-08-30T08:06:27.269Z,67.39
2022-08-30T08:07:27.291Z,66.58
2022-08-30T08:08:27.266Z,69.60
2022-08-30T08:09:27.260Z,75.77
2022-08-30T08:10:27.230Z,71.52
2022-08-30T08:11:31.601Z,68.50
2022-08-30T08:12:29.258Z,73.42
2022-08-30T08:13:27.927Z,66.22
2022-08-30T08:14:27.236Z,69.94
2022-08-30T08:15:27.211Z,70.33
2022-08-30T08:16:27.220Z,72.74
2022-08-30T08:17:27.180Z,71.42
2022-08-30T08:18:27.187Z,66.75
2022-08-30T08:19:27.200Z,68.57
2022-08-30T08:20:27.172Z,75.40
2022-08-30T08:21:27.169Z,72.45
2022-08-30T08:22:27.159Z,75.10
2022-08-30T08:23:27.159Z,65.04
2022-08-30T08:24:27.170Z,69.14
2022-08-30T08:25:27.150Z,72.62
2022-08-30T08:26:27.160Z,70.23
2022-08-30T08:27:27.135Z,69.14
2022-08-30T08:28:27.103Z,68.23
2022-08-30T08:29:28.118Z,71.29
2022-08-30T08:30:27.110Z,75.97
2022-08-30T08:31:33.572Z,65.83
2022-08-30T08:32:28.103Z,70.24
2022-08-30T08:33:27.103Z,75.85
2022-08-30T08:34:27.092Z,69.88
2022-08-30T08:35:27.092Z,70.36
2022-08-30T08:36:27.091Z,70.83
2022-08-30T08:37:27.931Z,68.74
2022-08-30T08:38:28.012Z,59.39
2022-08-30T08:39:27.051Z,69.79
2022-08-30T08:40:27.141Z,71.09
2022-08-30T08:41:27.036Z,73.69
2022-08-30T08:42:27.062Z,71.60
2022-08-30T08:43:27.053Z,65.59
2022-08-30T08:44:31.239Z,73.83
2022-08-30T08:45:28.016Z,67.98
2022-08-30T08:46:27.113Z,73.98
2022-08-30T08:47:26.992Z,72.16
2022-08-30T08:48:32.117Z,67.73
2022-08-30T08:49:27.992Z,67.09
2022-08-30T08:50:26.980Z,66.80
2022-08-30T08:51:26.976Z,71.85
2022-08-30T08:52:26.970Z,68.44
2022-08-30T08:53:45.855Z,67.45
2022-08-30T08:54:28.977Z,69.21
2022-08-30T08:55:26.961Z,71.23
2022-08-30T08:56:26.964Z,71.86
2022-08-30T08:57:26.952Z,70.51
2022-08-30T08:58:26.923Z,67.66
2022-08-30T08:59:26.913Z,70.29
2022-08-30T09:00:26.911Z,66.21
2022-08-30T09:01:26.978Z,73.77
2022-08-30T09:02:26.900Z,70.49
2022-08-30T09:03:26.932Z,67.28
2022-08-30T09:04:26.878Z,66.02
2022-08-30T09:05:26.917Z,72.53
2022-08-30T09:06:26.941Z,66.84
2022-08-30T09:07:26.894Z,72.54
2022-08-30T09:08:26.879Z,70.68
2022-08-30T09:09:26.877Z,67.37
2022-08-30T09:10:46.910Z,71.33
2022-08-30T09:11:28.853Z,73.47
2022-08-30T09:12:26.853Z,68.24
2022-08-30T09:13:27.260Z,68.67
2022-08-30T09:14:30.022Z,73.82
2022-08-30T09:15:26.862Z,67.91
2022-08-30T09:16:26.821Z,72.28
2022-08-30T09:17:26.836Z,68.51
2022-08-30T09:18:26.854Z,70.98
2022-08-30T09:19:26.817Z,62.37
2022-08-30T09:20:26.804Z,67.18
2022-08-30T09:21:27.784Z,66.21
2022-08-30T09:22:26.822Z,62.28
2022-08-30T09:23:26.777Z,71.28
2022-08-30T09:24:26.780Z,59.96
2022-08-30T09:25:26.760Z,64.02
2022-08-30T09:26:26.801Z,65.48
2022-08-30T09:27:26.752Z,71.04
2022-08-30T09:28:26.757Z,73.34
2022-08-30T09:29:26.749Z,69.78
2022-08-30T09:30:27.201Z,71.75
2022-08-30T09:31:26.754Z,68.43
2022-08-30T09:32:26.731Z,69.30
2022-08-30T09:33:26.727Z,67.75
2022-08-30T09:34:26.723Z,67.83
2022-08-30T09:35:26.740Z,61.23
2022-08-30T09:36:26.726Z,66.43
2022-08-30T09:37:26.744Z,72.32
2022-08-30T09:38:26.746Z,72.43
2022-08-30T09:39:27.771Z,71.56
2022-08-30T09:40:26.742Z,72.88
2022-08-30T09:41:26.726Z,61.99
2022-08-30T09:42:26.689Z,72.61
2022-08-30T09:43:26.677Z,64.48
2022-08-30T09:44:26.667Z,70.37
2022-08-30T09:45:27.883Z,68.69
2022-08-30T09:46:26.686Z,65.28
2022-08-30T09:47:26.645Z,74.47
2022-08-30T09:48:26.738Z,69.46
2022-08-30T09:49:26.667Z,68.89
2022-08-30T09:50:26.644Z,69.93
2022-08-30T09:51:26.650Z,70.92
2022-08-30T09:52:26.638Z,68.64
2022-08-30T09:53:26.612Z,69.88
2022-08-30T09:54:26.628Z,72.60
2022-08-30T09:55:26.634Z,62.94
2022-08-30T09:56:26.601Z,71.32
2022-08-30T09:57:33.839Z,71.29
2022-08-30T09:58:29.915Z,71.81
2022-08-30T09:59:27.601Z,68.31
2022-08-30T10:00:26.561Z,67.30
2022-08-30T10:01:26.603Z,69.82
2022-08-30T10:02:28.293Z,68.02
2022-08-30T10:03:36.277Z,67.60
2022-08-30T10:04:31.058Z,67.63
2022-08-30T10:05:27.536Z,62.26
2022-08-30T10:06:27.929Z,65.74
2022-08-30T10:07:28.938Z,67.81
2022-08-30T10:08:26.500Z,73.06
2022-08-30T10:09:26.507Z,65.78
2022-08-30T10:10:26.506Z,63.68
2022-08-30T10:11:26.493Z,68.01
2022-08-30T10:12:26.491Z,70.08
2022-08-30T10:13:26.535Z,71.74
2022-08-30T10:14:26.509Z,70.37
2022-08-30T10:15:26.476Z,69.21
2022-08-30T10:16:26.468Z,70.08
2022-08-30T10:17:27.052Z,70.29
2022-08-30T10:18:26.448Z,65.69
2022-08-30T10:19:26.441Z,67.58
2022-08-30T10:20:26.457Z,62.70
2022-08-30T10:21:26.474Z,67.07
2022-08-30T10:22:26.425Z,69.68
2022-08-30T10:23:26.489Z,61.74
2022-08-30T10:24:30.115Z,71.64
2022-08-30T10:25:27.453Z,64.18
2022-08-30T10:26:26.410Z,72.60
2022-08-30T10:27:26.433Z,72.11
2022-08-30T10:28:26.400Z,71.57
2022-08-30T10:29:26.393Z,68.10
2022-08-30T10:30:26.397Z,69.20
2022-08-30T10:31:26.617Z,68.73
2022-08-30T10:32:26.362Z,63.53
2022-08-30T10:33:27.369Z,69.93
2022-08-30T10:34:26.369Z,71.79
2022-08-30T10:35:28.038Z,68.03
2022-08-30T10:36:26.392Z,66.83
2022-08-30T10:37:26.348Z,64.68
2022-08-30T10:38:26.347Z,70.72
2022-08-30T10:39:26.331Z,61.88
2022-08-30T10:40:26.382Z,64.86
2022-08-30T10:41:26.319Z,66.41
2022-08-30T10:42:26.440Z,66.98
2022-08-30T10:43:26.314Z,67.34
2022-08-30T10:44:26.300Z,69.41
2022-08-30T10:45:26.287Z,64.13
2022-08-30T10:46:26.307Z,69.42
2022-08-30T10:47:26.285Z,69.58
2022-08-30T10:48:26.283Z,64.15
2022-08-30T10:49:26.276Z,65.30
2022-08-30T10:50:26.283Z,67.26
2022-08-30T10:51:26.279Z,67.75
2022-08-30T10:52:26.267Z,71.61
2022-08-30T10:53:26.244Z,69.66
2022-08-30T10:54:26.260Z,67.56
2022-08-30T10:55:26.235Z,70.83
2022-08-30T10:56:26.249Z,67.97
2022-08-30T10:57:26.328Z,65.27
2022-08-30T10:58:26.231Z,66.25
2022-08-30T10:59:26.227Z,71.86
2022-08-30T11:00:26.206Z,70.31
2022-08-30T11:01:28.547Z,67.32
2022-08-30T11:02:27.210Z,64.89
2022-08-30T11:03:26.211Z,67.57
2022-08-30T11:04:26.184Z,67.48
2022-08-30T11:05:26.391Z,68.64
2022-08-30T11:06:26.195Z,63.91
2022-08-30T11:07:26.230Z,67.09
2022-08-30T11:08:26.158Z,70.98
2022-08-30T11:09:26.663Z,64.51
2022-08-30T11:10:26.148Z,70.67
2022-08-30T11:11:26.918Z,66.82
2022-08-30T11:13:27.171Z,68.18
2022-08-30T11:14:26.150Z,69.65
2022-08-30T11:15:26.121Z,69.20
2022-08-30T11:16:26.138Z,66.41
2022-08-30T11:17:26.107Z,69.06
2022-08-30T11:18:26.128Z,70.21
2022-08-30T11:19:26.219Z,66.98
2022-08-30T11:20:26.104Z,68.36
2022-08-30T11:21:26.092Z,66.27
2022-08-30T11:22:26.096Z,69.25
2022-08-30T11:23:26.092Z,65.08
2022-08-30T11:24:26.085Z,68.81
2022-08-30T11:25:26.075Z,68.80
2022-08-30T11:26:26.069Z,66.06
2022-08-30T11:27:26.077Z,67.31
2022-08-30T11:28:26.063Z,68.24
2022-08-30T11:29:27.102Z,65.75
2022-08-30T11:30:26.592Z,70.91
2022-08-30T11:31:26.062Z,68.04
2022-08-30T11:32:26.040Z,67.19
2022-08-30T11:33:26.092Z,68.51
2022-08-30T11:34:26.019Z,68.87
2022-08-30T11:35:26.049Z,66.71
2022-08-30T11:36:26.034Z,69.51
2022-08-30T11:37:26.033Z,65.87
2022-08-30T11:38:26.014Z,70.82
2022-08-30T11:39:25.993Z,69.37
2022-08-30T11:40:26.034Z,65.89
2022-08-30T11:41:27.290Z,66.78
2022-08-30T11:42:29.601Z,66.86
2022-08-30T11:43:25.985Z,68.19
2022-08-30T11:44:25.977Z,64.23
2022-08-30T11:45:28.089Z,67.18
2022-08-30T11:46:26.027Z,69.84
2022-08-30T11:47:25.960Z,65.16
2022-08-30T11:48:25.960Z,66.66
2022-08-30T11:49:25.981Z,68.83
2022-08-30T11:50:25.961Z,68.58
2022-08-30T11:51:25.960Z,65.25
2022-08-30T11:52:27.192Z,67.40
2022-08-30T11:53:25.928Z,67.65
2022-08-30T11:54:25.919Z,67.53
2022-08-30T11:55:25.932Z,68.94
2022-08-30T11:56:25.931Z,69.27
2022-08-30T11:57:25.923Z,70.50
2022-08-30T11:58:25.955Z,69.52
2022-08-30T11:59:25.916Z,70.78
2022-08-30T12:00:28.424Z,69.85
2022-08-30T12:01:49.839Z,67.01
2022-08-30T12:02:27.982Z,69.39
2022-08-30T12:03:26.043Z,68.39
2022-08-30T12:04:25.972Z,67.69
2022-08-30T12:05:25.871Z,71.00
2022-08-30T12:06:25.863Z,69.68
2022-08-30T12:07:25.894Z,70.56
2022-08-30T12:08:28.018Z,68.06
2022-08-30T12:09:25.849Z,71.09
2022-08-30T12:10:25.833Z,72.36
2022-08-30T12:11:25.830Z,67.92
2022-08-30T12:12:25.857Z,63.00
2022-08-30T12:13:25.825Z,65.63
2022-08-30T12:14:25.826Z,67.43
2022-08-30T12:15:25.831Z,67.82
2022-08-30T12:16:25.827Z,67.72
2022-08-30T12:17:25.804Z,65.73
2022-08-30T12:18:25.835Z,67.43
2022-08-30T12:19:25.792Z,69.06
2022-08-30T12:20:25.794Z,65.73
2022-08-30T12:21:28.042Z,68.88
2022-08-30T12:22:25.770Z,70.44
2022-08-30T12:23:25.778Z,67.03
2022-08-30T12:24:25.814Z,71.89
2022-08-30T12:25:25.766Z,70.66
2022-08-30T12:26:25.762Z,69.41
2022-08-30T12:27:25.748Z,70.95
2022-08-30T12:28:25.781Z,68.52
2022-08-30T12:29:25.746Z,70.73
2022-08-30T12:30:25.808Z,70.56
2022-08-30T12:31:25.748Z,69.61
2022-08-30T12:32:25.727Z,66.21
2022-08-30T12:33:29.121Z,66.92
2022-08-30T12:34:25.710Z,67.23
2022-08-30T12:35:25.702Z,66.01
2022-08-30T12:36:25.712Z,70.81
2022-08-30T12:37:25.702Z,71.17
2022-08-30T12:38:28.024Z,68.65
2022-08-30T12:39:25.704Z,71.28
2022-08-30T12:40:25.757Z,67.80
2022-08-30T12:41:25.718Z,73.23
2022-08-30T12:42:27.087Z,72.06
2022-08-30T12:43:25.674Z,69.10
2022-08-30T12:44:25.662Z,69.33
2022-08-30T12:45:25.705Z,71.70
2022-08-30T12:46:25.898Z,71.29
2022-08-30T12:47:25.673Z,69.35
2022-08-30T12:48:25.661Z,70.73
2022-08-30T12:49:25.641Z,69.44
2022-08-30T12:50:25.625Z,72.86
2022-08-30T12:51:25.642Z,71.19
2022-08-30T12:52:25.613Z,70.74
2022-08-30T12:53:25.615Z,73.06